KBKS

Brooks County Airport

Falfurrias, Texas, USA
METAR KBKS 170315Z AUTO 32008KT 10SM BKN011 BKN020 OVC028 13/10 A3019 RMK AO1 T01250100
Observed Flight Rules
Oct-17 @ 03:15 UTC (29 minutes ago) Marginal Visual Flight Rules
Wind Visibility Clouds
320° at 8 knots 10 miles
  • Broken at 1,100' AGL
  • Broken at 2,000' AGL
  • Overcast at 2,800' AGL
Temperatures Readings
Current 13°C / 55°F
Dewpoint 10°C / 50°F
Humidity 82%
Altimeter 30.19" Hg
Pressure 1022 hPa
Elevation 34
METAR KBKS 170315Z AUTO 32008KT 10SM BKN011 BKN020 OVC028 13/10 A3019 RMK AO1 T01250100
Observed Flight Rules
Oct-17 @ 03:15 UTC
(29 minutes ago)
MVFR
Wind Visibility
320° at 8 knots 10 miles
Clouds
  • Broken at 1,100' AGL
  • Broken at 2,000' AGL
  • Overcast at 2,800' AGL
Temperature Dewpoint
13°C / 55°F 10°C / 50°F
Humidity Altimeter Pressure
82% 30.19" Hg 1022 hPa